Terminal Aerodrome Forecast
Issued by NWS

Home | Current Version | Previous Version | Text Only | Print | Product List | Glossary On
Versions: 1 2 3 4 5 6 7 8 9 10 11 12 13 14 15 16 17 18 19 20 21 22 23 24 25 26 27 28 29 30 31 32 33 34 35 36 37 38 39 40 41 42 43 44 45
000
FTUS45 KBOU 221121
TAFBJC
TAF
KBJC 221121Z 2212/2312 VRB05KT P6SM BKN080 BKN120
      TEMPO 2212/2214 4SM -SHRA BKN060
     FM221400 VRB05KT P6SM SCT080 BKN120
     FM221800 14008KT P6SM VCTS SCT060CB BKN100
      TEMPO 2220/2224 VRB20G35KT 5SM TSRA BKN060CB
     FM230100 32007KT P6SM VCSH SCT050 BKN080
     FM230400 29006KT P6SM SCT050 BKN080
     FM230700 25006KT P6SM FEW080 SCT120=

USA.gov is the U.S. government's official web portal to all federal, state and local government web resources and services.